• Join FlightAware (Why Join?)
  • Login
  • US Flag 
04:31PM EDT


 

Airport Tracker/Info


-or-


 

Live Flight TrackerFlight Track Log ✈ N143DE ✈ 21-Aug-2013 ✈ KATL - KCVG

Flight Track Log - Related Links

Times and Time Zones

All times are in EDT time to prevent confusion due to time zone crossing. See the N143DE flight status page for this flight to view local times or setup timezone preferences in your user account.

Time Position Orientation Groundspeed Altitude Reporting Facility
EDT Latitude Longitude Course Direction KTS MPH feet Rate Location/Type
01:36AM 33.6500 -84.3667 90° East 167 192 3,400  Level Atlanta TRACON
01:37AM 33.7000 -84.3500 15° North 174 200 5,300 1,740 Climbing Atlanta TRACON
01:38AM 33.7500 -84.3667 345° North 194 223 6,900 1,500 Climbing Atlanta TRACON
01:39AM 33.8167 -84.3667 360° North 200 230 8,400 1,380 Climbing Atlanta TRACON
01:40AM 33.8939 -84.3642 North 221 254 10,400 1,260 Climbing Atlanta Center
01:41AM 33.9544 -84.3644 360° North 215 247 11,700 1,680 Climbing Atlanta Center
01:42AM 34.0025 -84.3619 North 191 220 13,800 1,680 Climbing Atlanta Center
01:43AM 34.0483 -84.3622 North 165 190 15,100 1,200 Climbing Atlanta Center
01:44AM 34.1047 -84.3650 358° North 170 196 16,300 1,140 Climbing Atlanta Center
01:45AM 34.1633 -84.3678 358° North 195 224 17,400 900 Climbing Atlanta Center
01:46AM 34.2153 -84.3703 358° North 195 224 18,200 900 Climbing Atlanta Center
01:47AM 34.2697 -84.3731 358° North 195 224 19,200 900 Climbing Atlanta Center
01:48AM 34.3239 -84.3758 358° North 195 224 20,100 840 Climbing Atlanta Center
01:49AM 34.3781 -84.3811 355° North 200 230 20,900 780 Climbing Atlanta Center
01:50AM 34.4344 -84.3814 360° North 194 223 21,700 660 Climbing Atlanta Center
01:51AM 34.4931 -84.3892 354° North 199 229 22,300 720 Climbing Atlanta Center
01:52AM 34.5492 -84.3894 360° North 199 229 23,200 720 Climbing Atlanta Center
01:53AM 34.6056 -84.3947 356° North 199 229 23,800 600 Climbing Atlanta Center
01:54AM 34.6619 -84.3975 358° North 199 229 24,400 540 Climbing Atlanta Center
01:55AM 34.7119 -84.4000 358° North 199 229 24,900 300 Climbing Atlanta Center
01:56AM 34.7725 -84.4056 356° North 209 241 25,000 60 Climbing Atlanta Center
01:57AM 34.8394 -84.4083 358° North 224 258 25,100  Climbing Atlanta Center
01:58AM 34.9081 -84.4086 360° North 236 272 25,100 -60 Level Atlanta Center
01:59AM 34.9750 -84.4164 355° North 241 277 25,000 -60 Descending Atlanta Center
02:00AM 35.0458 -84.4219 356° North 241 277 25,000  Level Atlanta Center
02:01AM 35.1167 -84.4247 358° North 241 277 25,000  Level Atlanta Center
02:02AM 35.1897 -84.4303 356° North 252 290 25,000  Level Atlanta Center
02:03AM 35.2608 -84.4331 358° North 252 290 25,000  Level Atlanta Center
02:04AM 35.3336 -84.4383 357° North 252 290 25,000  Level Atlanta Center
02:05AM 35.4067 -84.4414 358° North 252 290 25,000  Level Atlanta Center
02:06AM 35.4778 -84.4469 356° North 257 296 25,000  Level Atlanta Center
02:07AM 35.5506 -84.4497 358° North 257 296 25,000  Level Atlanta Center
02:08AM 35.6236 -84.4553 356° North 257 296 25,000  Level Atlanta Center
02:10AM 35.7386 -84.4592 358° North 259 298 25,000  Level Indianapolis Center
02:11AM 35.8103 -84.4636 357° North 259 298 25,000  Level Indianapolis Center
02:12AM 35.8822 -84.4683 357° North 261 300 25,000  Level Indianapolis Center
02:13AM 35.9539 -84.4725 357° North 260 299 25,000  Level Indianapolis Center
02:14AM 36.0269 -84.4769 357° North 263 303 25,000  Level Indianapolis Center
02:15AM 36.0997 -84.4814 357° North 263 303 25,000  Level Indianapolis Center
02:16AM 36.1733 -84.4864 357° North 265 305 25,000  Level Indianapolis Center
02:17AM 36.2472 -84.4911 357° North 267 307 25,000  Level Indianapolis Center
02:18AM 36.3197 -84.4953 357° North 263 303 25,000  Level Indianapolis Center
02:19AM 36.3939 -84.4992 358° North 265 305 25,100  Climbing Indianapolis Center
02:20AM 36.4681 -84.5019 358° North 267 307 25,100  Level Indianapolis Center
02:21AM 36.5414 -84.5064 357° North 264 304 25,100  Level Indianapolis Center
02:22AM 36.6153 -84.5111 357° North 267 307 25,100  Level Indianapolis Center
02:23AM 36.6892 -84.5172 356° North 266 306 25,100  Level Indianapolis Center
02:24AM 36.7636 -84.5222 357° North 267 307 25,100  Level Indianapolis Center
02:25AM 36.8383 -84.5269 357° North 267 307 25,100  Level Indianapolis Center
02:26AM 36.9136 -84.5308 358° North 271 312 25,100  Level Indianapolis Center
02:27AM 36.9883 -84.5364 357° North 269 310 25,100  Level Indianapolis Center
02:28AM 37.0786 -84.5400 358° North 274 315 25,100  Level Indianapolis Center
02:29AM 37.1547 -84.5472 356° North 274 315 25,100  Level Indianapolis Center
02:30AM 37.2306 -84.5503 358° North 273 314 25,100  Level Indianapolis Center
02:31AM 37.3067 -84.5581 355° North 273 314 25,100  Level Indianapolis Center
02:32AM 37.3839 -84.5611 358° North 276 318 25,100  Level Indianapolis Center
02:33AM 37.4458 -84.5647 357° North 270 311 25,100  Level Indianapolis Center
02:34AM 37.5217 -84.5689 358° North 271 312 25,100  Level Indianapolis Center
02:35AM 37.5975 -84.5739 357° North 273 314 25,100  Level Indianapolis Center
02:36AM 37.6708 -84.5789 357° North 265 305 25,100 -600 Level Indianapolis Center
02:37AM 37.7456 -84.5842 357° North 268 308 24,000 -1,380 Descending Indianapolis Center
02:38AM 37.8297 -84.5886 358° North 295 339 22,400 -1,500 Descending Indianapolis Center
02:39AM 37.9156 -84.5967 356° North 306 352 21,000 -1,440 Descending Indianapolis Center
02:40AM 38.0000 -84.5994 359° North 303 349 19,600 -1,500 Descending Indianapolis Center
02:41AM 38.0828 -84.6058 357° North 299 344 18,000 -1,560 Descending Indianapolis Center
02:42AM 38.1683 -84.6086 359° North 304 350 16,500 -1,560 Descending Indianapolis Center
02:43AM 38.2489 -84.6150 356° North 294 338 14,900 -1,620 Descending Indianapolis Center
02:44AM 38.3300 -84.6183 358° North 291 335 13,300 -1,560 Descending Indianapolis Center
02:45AM 38.4067 -84.6347 350° North 284 327 11,800 -1,200 Descending Indianapolis Center
02:46AM 38.4806 -84.6553 348° North 272 313 11,000 -780 Descending Indianapolis Center
02:47AM 38.5475 -84.6744 347° North 251 289 10,300 -1,080 Descending Indianapolis Center
02:48AM 38.6167 -84.6964 346° North 256 295 8,900 -1,380 Descending Indianapolis Center
02:49AM 38.6822 -84.7158 347° North 256 295 7,600 -1,440 Descending Indianapolis Center
02:50AM 38.7522 -84.7364 347° North 257 296 6,100 -1,440 Descending Indianapolis Center
02:51AM 38.8331 -84.7569 349° North 255 293 4,800 -1,380 Descending Indianapolis Center
02:52AM 38.8833 -84.7667 351° North 243 280 3,800 -780 Descending Cincinnati TRACON
02:53AM 38.9333 -84.7833 345° North 213 245 3,500 -600 Descending Cincinnati TRACON
02:54AM 39.0000 -84.8000 349° North 192 221 2,600 -600 Descending Cincinnati TRACON
02:55AM 39.0333 -84.7833 21° North 163 188 2,300 -480 Descending Cincinnati TRACON
02:56AM 39.0500 -84.7333 67° East 124 143 1,700 -600 Descending Cincinnati TRACON
02:57AM 39.0500 -84.7000 90° East 109 125 1,100 -600 Descending Cincinnati TRACON
02:59AM 39.0333 -84.6667 339° North  Level FlightAware Approximate